Airfield :
LOGIN :

Register | Disclaimer

   EN    FR    IT 

 










Legend :    VFR   Marginal VFR   IFR   Intensive IFR   Very Intensive IFR
Visi :
Ceiling :
>= 8 km
>= 3000ft
5 to 8 km
1000 to 3000 ft
1500m to 5 km
500 to 1000 ft
800 to 1500m
200 to 500 ft
< 800m
< 200 ft
Symbols :   Thunderstorms  Fog  Heavy snow  Heavy precipitations  Wind > 20 kt
SIGMETs :     Misc.  Thunderstorms  Icing  Turbulence  Mountain Waves  Volcanic Ashes






- Airport Elevation : 1682 ft
- IATA code : VIT


LEVT - Vitoria Gasteiz

CURRENT METAR :
  • 190930Z 19009KT 150V240 9999 SCT019 BKN039 20/14 Q1015

EXPIRED METARs :
  • 190900Z 22007KT 170V250 9999 SCT019 BKN032 20/15 Q1015
  • 190830Z 17004KT 120V240 9999 SCT015 BKN032 19/14 Q1015
  • 190800Z 22005KT 9999 SCT013 BKN032 18/15 Q1016
  • 190730Z 21004KT 140V270 9999 4000SW SCT011 BKN022 18/15 Q1015
  • 190700Z 16003KT 100V200 9999 4000SW SCT011 BKN022 17/16 Q1015

TAF TAF LEVT
Valid from the 19 at 06:00 until the 20 at 06:00 UTC


190500Z 1906/2006 VRB05KT 9999 SCT020 BKN030 TX24/1914Z TN12/1906Z
PROB30
TEMPO 1906/1907 0350 FG VV001
TEMPO 1912/1918 26010KT
TEMPO 1912/1918 3000 SHRA SCT020TCU
PROB30
TEMPO 1912/1918 3000 +SHRA TS BKN025CB
TEMPO 1916/1924 02010KT
PROB40
TEMPO 2000/2006 0350 FG VV001



MET'MAP, your aeronautical weather chart ! - Copyright ORBIFLY December 2007 - Disclaimer

ORBIFLY MET'MAP TEAM :

Programming & Development : Alexandra Zaïnal
Concept & original design : Baudouin d'Aumeries
Assistance for programming : Marc-Olivier Méhu
Technical & hardware support : Manuel Goepfert

Contact : metmap@orbifly.com




SOURCES & CREDITS :

   NOAA